createdAt,value
2019-02-04T00:04:49.376Z,14.23
2019-02-04T00:09:55.783Z,13.93
2019-02-04T00:15:01.152Z,11.27
2019-02-04T00:20:07.669Z,9.07
2019-02-04T00:25:13.095Z,17.03
2019-02-04T00:30:18.884Z,8.20
2019-02-04T00:35:24.215Z,5.50
2019-02-04T00:40:29.796Z,7.73
2019-02-04T00:45:35.136Z,13.60
2019-02-04T00:50:40.492Z,12.87
2019-02-04T00:55:46.028Z,8.30
2019-02-04T01:00:50.781Z,6.77
2019-02-04T01:05:56.013Z,15.60
2019-02-04T01:11:01.355Z,12.20
2019-02-04T01:16:06.670Z,3.23
2019-02-04T01:21:11.441Z,10.70
2019-02-04T01:26:16.671Z,7.40
2019-02-04T01:31:21.988Z,15.03
2019-02-04T01:36:27.339Z,8.90
2019-02-04T01:41:33.412Z,15.87
2019-02-04T01:46:38.850Z,13.40
2019-02-04T01:51:44.182Z,10.87
2019-02-04T01:56:49.502Z,8.23
2019-02-04T02:01:54.851Z,16.10
2019-02-04T02:07:00.182Z,5.40
2019-02-04T02:12:05.614Z,15.10
2019-02-04T02:17:10.949Z,16.10
2019-02-04T02:22:16.259Z,9.67
2019-02-04T02:27:21.621Z,13.63
2019-02-04T02:32:27.106Z,14.80
2019-02-04T02:37:32.750Z,14.63
2019-02-04T02:42:38.083Z,15.07
2019-02-04T02:47:43.409Z,14.37
2019-02-04T02:52:48.743Z,13.37
2019-02-04T02:57:54.265Z,11.73
2019-02-04T03:02:59.575Z,15.73
2019-02-04T03:08:05.266Z,12.63
2019-02-04T03:13:10.879Z,13.17
2019-02-04T03:18:16.212Z,14.43
2019-02-04T03:23:21.948Z,11.83
2019-02-04T03:28:27.337Z,12.47
2019-02-04T03:33:32.647Z,17.17
2019-02-04T03:38:37.932Z,11.37
2019-02-04T03:43:43.231Z,11.80
2019-02-04T03:48:48.534Z,6.50
2019-02-04T03:53:53.835Z,18.57
2019-02-04T03:58:58.559Z,20.23
2019-02-04T04:04:03.778Z,18.13
2019-02-04T04:09:09.479Z,18.87
2019-02-04T04:14:14.811Z,12.80
2019-02-04T04:19:20.102Z,11.30
2019-02-04T04:24:24.793Z,14.47
2019-02-04T04:29:30.035Z,13.20
2019-02-04T04:34:35.361Z,12.00
2019-02-04T04:39:40.683Z,9.07
2019-02-04T04:44:46.159Z,13.70
2019-02-04T04:49:51.469Z,17.27
2019-02-04T04:54:57.121Z,15.07
2019-02-04T05:00:02.728Z,16.70
2019-02-04T05:05:10.569Z,15.33
2019-02-04T05:10:17.513Z,15.67
2019-02-04T05:15:27.456Z,15.63
2019-02-04T05:20:32.173Z,14.73
2019-02-04T05:25:37.377Z,16.93
2019-02-04T05:30:42.712Z,20.07
2019-02-04T05:35:47.419Z,17.83
2019-02-04T05:40:52.682Z,22.63
2019-02-04T05:45:57.980Z,20.57
2019-02-04T05:51:03.304Z,17.77
2019-02-04T05:56:08.628Z,18.23
2019-02-04T06:01:13.343Z,17.43
2019-02-04T06:06:18.595Z,14.10
2019-02-04T06:11:24.159Z,12.53
2019-02-04T06:16:29.467Z,18.07
2019-02-04T06:21:34.775Z,19.87
2019-02-04T06:26:40.024Z,17.23
2019-02-04T06:31:45.256Z,17.33
2019-02-04T06:36:49.954Z,12.57
2019-02-04T06:41:55.384Z,13.87
2019-02-04T06:47:00.675Z,20.53
2019-02-04T06:52:05.988Z,24.83
2019-02-04T06:57:11.326Z,22.37
2019-02-04T07:02:16.670Z,36.47
2019-02-04T07:07:22.005Z,29.40
2019-02-04T07:12:27.799Z,22.87
2019-02-04T07:17:33.123Z,19.27
2019-02-04T07:22:38.468Z,17.73
2019-02-04T07:27:43.763Z,33.47
2019-02-04T07:32:49.504Z,29.80
2019-02-04T07:37:54.966Z,23.43
2019-02-04T07:43:00.289Z,21.27
2019-02-04T07:48:05.733Z,25.03
2019-02-04T07:53:11.027Z,21.17
2019-02-04T07:58:16.699Z,16.13
2019-02-04T08:03:21.411Z,47.67
2019-02-04T08:08:27.495Z,85.97
2019-02-04T08:13:32.899Z,80.30
2019-02-04T08:18:38.923Z,31.63
2019-02-04T08:23:44.744Z,23.57
2019-02-04T08:28:50.369Z,23.70
2019-02-04T08:33:56.470Z,24.47
2019-02-04T08:39:01.784Z,24.83
2019-02-04T08:44:08.948Z,24.20
2019-02-04T08:49:16.256Z,20.07
2019-02-04T08:54:22.125Z,23.83
2019-02-04T08:59:29.054Z,16.37
2019-02-04T09:04:37.030Z,19.03
2019-02-04T09:09:42.053Z,16.90
2019-02-04T09:14:47.451Z,14.63
2019-02-04T09:19:52.808Z,16.53
2019-02-04T09:24:58.124Z,14.37
2019-02-04T09:30:03.650Z,17.83
2019-02-04T09:35:11.761Z,16.33
2019-02-04T09:40:25.837Z,9.43
2019-02-04T09:45:32.033Z,10.57
2019-02-04T09:50:37.543Z,21.17
2019-02-04T09:55:43.286Z,19.17
2019-02-04T10:00:48.703Z,27.77
2019-02-04T10:05:53.992Z,23.13
2019-02-04T10:10:59.308Z,21.43
2019-02-04T10:16:04.656Z,20.13
2019-02-04T10:21:09.962Z,21.03
2019-02-04T10:26:15.325Z,19.73
2019-02-04T10:31:20.685Z,19.80
2019-02-04T10:36:26.061Z,18.20
2019-02-04T10:41:31.386Z,18.23
2019-02-04T10:46:36.721Z,18.50
2019-02-04T10:51:42.132Z,20.73
2019-02-04T10:56:47.449Z,19.90
2019-02-04T11:01:52.755Z,20.70
2019-02-04T11:06:58.107Z,20.23
2019-02-04T11:12:03.483Z,15.57
2019-02-04T11:17:09.211Z,16.37
2019-02-04T11:22:14.670Z,14.07
2019-02-04T11:27:20.055Z,14.93
2019-02-04T11:32:25.426Z,16.67
2019-02-04T11:37:30.728Z,16.50
2019-02-04T11:42:36.105Z,23.30
2019-02-04T11:47:41.507Z,19.40
2019-02-04T11:52:46.957Z,18.80
2019-02-04T11:57:52.284Z,20.53
2019-02-04T12:02:59.072Z,17.77
2019-02-04T12:08:04.497Z,19.23
2019-02-04T12:13:09.795Z,17.77
2019-02-04T12:18:15.140Z,17.03
2019-02-04T12:23:20.467Z,18.13
2019-02-04T12:28:25.772Z,21.67
2019-02-04T12:33:31.071Z,19.70
2019-02-04T12:38:36.783Z,18.87
2019-02-04T12:43:42.303Z,19.17
2019-02-04T12:48:47.600Z,21.43
2019-02-04T12:53:52.978Z,19.80
2019-02-04T12:58:58.333Z,20.60
2019-02-04T13:04:03.656Z,20.13
2019-02-04T13:09:10.405Z,19.43
2019-02-04T13:14:15.743Z,21.07
2019-02-04T13:19:21.119Z,21.20
2019-02-04T13:24:26.860Z,23.27
2019-02-04T13:29:32.263Z,24.17
2019-02-04T13:34:37.596Z,24.50
2019-02-04T13:39:42.915Z,28.50
2019-02-04T13:44:48.628Z,19.33
2019-02-04T13:49:53.951Z,22.93
2019-02-04T13:54:59.350Z,20.33
2019-02-04T14:00:07.267Z,22.33
2019-02-04T14:05:12.768Z,29.40
2019-02-04T14:10:26.379Z,27.33
2019-02-04T14:15:35.283Z,27.00
2019-02-04T14:20:38.547Z,27.20
2019-02-04T14:25:43.776Z,33.63
2019-02-04T14:30:49.559Z,28.47
2019-02-04T14:35:54.857Z,24.60
2019-02-04T14:40:59.731Z,38.53
2019-02-04T14:46:23.717Z,34.27
2019-02-04T14:51:55.523Z,48.37
2019-02-04T14:57:07.327Z,64.70
2019-02-04T15:02:26.824Z,45.40
2019-02-04T15:07:49.784Z,100.70
2019-02-04T15:13:08.274Z,73.13
2019-02-04T15:18:32.913Z,46.10
2019-02-04T15:24:08.128Z,88.60
2019-02-04T15:29:30.215Z,78.23
2019-02-04T15:35:34.555Z,63.00
2019-02-04T15:40:58.133Z,92.03
2019-02-04T15:46:24.571Z,72.47
2019-02-04T15:51:31.471Z,107.93
2019-02-04T15:56:36.671Z,56.07
2019-02-04T16:01:42.194Z,92.93
2019-02-04T16:06:47.891Z,68.13
2019-02-04T16:11:53.184Z,76.80
2019-02-04T16:16:58.500Z,74.57
2019-02-04T16:22:03.200Z,58.63
2019-02-04T16:27:08.428Z,57.63
2019-02-04T16:32:13.839Z,52.73
2019-02-04T16:37:19.144Z,51.73
2019-02-04T16:42:24.848Z,51.83
2019-02-04T16:47:29.570Z,65.97
2019-02-04T16:52:34.169Z,54.33
2019-02-04T16:57:39.536Z,55.27
2019-02-04T17:02:45.799Z,55.13
2019-02-04T17:07:51.100Z,52.23
2019-02-04T17:12:57.388Z,49.90
2019-02-04T17:18:03.327Z,56.50
2019-02-04T17:23:08.754Z,44.30
2019-02-04T17:28:14.243Z,52.60
2019-02-04T17:33:20.761Z,35.93
2019-02-04T17:38:25.427Z,45.50
2019-02-04T17:43:30.676Z,46.57
2019-02-04T17:48:36.031Z,49.23
2019-02-04T17:53:40.995Z,50.93
2019-02-04T17:58:45.684Z,45.43
2019-02-04T18:03:51.988Z,38.50
2019-02-04T18:08:57.296Z,57.10
2019-02-04T18:14:03.008Z,39.63
2019-02-04T18:19:07.800Z,44.77
2019-02-04T18:24:12.397Z,43.70
2019-02-04T18:29:17.017Z,44.87
2019-02-04T18:34:22.806Z,59.40
2019-02-04T18:39:28.171Z,66.40
2019-02-04T18:44:33.219Z,63.50
2019-02-04T18:49:38.344Z,48.97
2019-02-04T18:54:43.975Z,70.17
2019-02-04T18:59:49.371Z,39.37
2019-02-04T19:04:54.071Z,34.57
2019-02-04T19:09:59.440Z,57.10
2019-02-04T19:15:04.367Z,86.13
2019-02-04T19:20:10.634Z,34.27
2019-02-04T19:25:16.830Z,39.27
2019-02-04T19:30:33.633Z,36.53
2019-02-04T19:35:41.277Z,34.97
2019-02-04T19:40:46.934Z,55.87
2019-02-04T19:45:52.291Z,47.60
2019-02-04T19:50:57.011Z,97.63
2019-02-04T19:56:02.782Z,47.43
2019-02-04T20:01:08.055Z,67.73
2019-02-04T20:06:12.751Z,74.97
2019-02-04T20:11:17.772Z,77.33
2019-02-04T20:16:22.487Z,59.27
2019-02-04T20:21:28.055Z,44.10
2019-02-04T20:26:32.897Z,77.87
2019-02-04T20:31:38.291Z,21.10
2019-02-04T20:36:43.038Z,58.07
2019-02-04T20:41:48.223Z,63.77
2019-02-04T20:46:53.487Z,30.40
2019-02-04T20:51:59.592Z,64.03
2019-02-04T20:57:05.682Z,63.93
2019-02-04T21:02:12.520Z,68.40
2019-02-04T21:07:18.296Z,51.27
2019-02-04T21:12:23.964Z,68.53
2019-02-04T21:17:30.634Z,45.47
2019-02-04T21:22:36.079Z,65.53
2019-02-04T21:27:42.477Z,43.47
2019-02-04T21:32:49.074Z,45.27
2019-02-04T21:37:55.967Z,23.57
2019-02-04T21:43:01.777Z,57.93
2019-02-04T21:48:08.441Z,78.40
2019-02-04T21:53:14.276Z,82.87
2019-02-04T21:58:21.165Z,65.80
2019-02-04T22:03:27.547Z,51.77
2019-02-04T22:08:32.363Z,44.60
2019-02-04T22:13:37.638Z,32.50
2019-02-04T22:18:42.932Z,50.60
2019-02-04T22:23:47.622Z,28.37
2019-02-04T22:28:52.823Z,34.93
2019-02-04T22:33:58.197Z,50.40
2019-02-04T22:39:05.368Z,24.30
2019-02-04T22:44:10.939Z,23.57
2019-02-04T22:49:16.231Z,28.17
2019-02-04T22:54:21.536Z,33.97
2019-02-04T22:59:26.848Z,45.87
2019-02-04T23:04:32.178Z,40.07
2019-02-04T23:09:37.574Z,47.13
2019-02-04T23:14:43.411Z,47.97
2019-02-04T23:19:49.024Z,39.73
2019-02-04T23:24:54.688Z,74.30
2019-02-04T23:30:01.274Z,30.60
2019-02-04T23:35:09.023Z,41.93
2019-02-04T23:40:16.603Z,52.13
2019-02-04T23:45:21.254Z,46.30
2019-02-04T23:50:26.180Z,40.33
2019-02-04T23:55:31.879Z,17.37
